Hog Island, Vermont
Current Conditions -  °F | °C
As of 3:35 AM on Friday 21 Nov 2014 (Local Time) from KFSO Reporting Station
Overcast Overcast  
Wind Chill: 16°   Ceiling: 2700
Heat Index: 24°   Visibility: 10mi
Dew Point: 15°   Wind: 7mph
Humidity: 67%   Direction: 270°W
Pressure: 29.9"   Gusts: NA
Location:  44.9002°N, 73.1493°W
Report Text: KFSO 210835Z AUTO 27006KT 10SM OVC027 M04/M10 A2990 RMK AO2 T10451097
Loading
Personal Weather Stations






























Interactive Weather Map New forecast layout! Learn more

10-Day Weather Forecast

Advertisements
Track Severe Weather on mobile